Time;durP1;ratioP1;P1;durP2;ratioP2;P2;SDS_P1;SDS_P2;PMS_P1;PMS_P2;Temp;Humidity;BMP_temperature;BMP_pressure;BME280_temperature;BME280_humidity;BME280_pressure;Samples;Min_cycle;Max_cycle;Signal;HPM_P1;HPM_P2
2022/06/30 08:31:50;;;;;;;9.38;6.30;;;;;;;;;;6178089;23;20025;-81
2022/06/30 08:34:15;;;;;;;8.40;5.47;;;;;;;;;;6216978;23;20432;-83
2022/06/30 08:36:40;;;;;;;8.50;5.53;;;;;;;;;;6217104;23;20012;-82
2022/06/30 08:42:02;;;;;;;8.30;5.32;;;;;;;;;;6190334;23;20008;-82
2022/06/30 08:42:02;;;;;;;7.13;5.32;;;;;;;;;;6216024;23;20051;-85
2022/06/30 08:44:30;;;;;;;7.63;5.55;;;;;;;;;;6216791;23;20035;-84
2022/06/30 08:46:58;;;;;;;6.10;5.50;;;;;;;;;;6216842;23;20432;-84
2022/06/30 09:07:30;;;;;;;11.00;6.85;;;;;;;;;;6212925;23;20554;-84
2022/06/30 09:09:56;;;;;;;8.90;6.55;;;;;;;;;;6216568;23;20031;-84
2022/06/30 09:12:21;;;;;;;14.05;6.93;;;;;;;;;;6216520;23;20412;-85
2022/06/30 09:14:48;;;;;;;10.48;7.50;;;;;;;;;;6214944;23;20075;-84
2022/06/30 09:17:19;;;;;;;9.15;7.28;;;;;;;;;;6216208;23;20039;-86
2022/06/30 09:19:55;;;;;;;10.05;7.70;;;;;;;;;;6216342;23;20324;-86
2022/06/30 09:22:38;;;;;;;8.43;6.95;;;;;;;;;;6216713;23;20411;-86
2022/06/30 09:25:09;;;;;;;9.40;6.82;;;;;;;;;;6216222;23;20000;-85
2022/06/30 09:27:37;;;;;;;11.13;7.07;;;;;;;;;;6216494;23;20478;-85
2022/06/30 09:30:11;;;;;;;9.57;6.60;;;;;;;;;;6216609;23;20004;-86
2022/06/30 09:32:49;;;;;;;8.52;6.80;;;;;;;;;;6216439;23;20031;-89
2022/06/30 09:35:16;;;;;;;14.68;7.30;;;;;;;;;;6216127;23;20420;-86
2022/06/30 09:37:42;;;;;;;8.88;6.47;;;;;;;;;;6216383;23;19997;-84
2022/06/30 09:40:09;;;;;;;11.55;7.20;;;;;;;;;;6215972;23;20012;-85
2022/06/30 09:42:42;;;;;;;8.70;6.88;;;;;;;;;;6216343;23;20020;-82
2022/06/30 09:45:14;;;;;;;12.80;7.55;;;;;;;;;;6216100;23;20008;-84
2022/06/30 09:47:54;;;;;;;17.35;8.05;;;;;;;;;;6216197;23;20051;-84
2022/06/30 09:50:20;;;;;;;13.10;8.05;;;;;;;;;;6215945;23;20355;-82
2022/06/30 09:53:01;;;;;;;10.50;7.13;;;;;;;;;;6216272;23;20001;-82
2022/06/30 09:55:36;;;;;;;12.73;7.60;;;;;;;;;;6216141;23;20024;-82
2022/06/30 09:58:02;;;;;;;12.27;7.07;;;;;;;;;;6216110;23;20004;-86
2022/06/30 10:00:27;;;;;;;13.95;8.32;;;;;;;;;;6189508;23;20059;-85
2022/06/30 10:02:52;;;;;;;11.48;7.03;;;;;;;;;;6216040;23;20007;-87
2022/06/30 10:05:19;;;;;;;12.68;7.93;;;;;;;;;;6216106;23;20012;-86
2022/06/30 10:07:45;;;;;;;8.60;6.97;;;;;;;;;;6216196;23;20008;-83
2022/06/30 10:10:16;;;;;;;12.60;7.43;;;;;;;;;;6189199;23;20424;-83
2022/06/30 10:12:45;;;;;;;12.38;8.07;;;;;;;;;;6216077;23;20431;-83
2022/06/30 10:15:11;;;;;;;;;;;;;;;;;;6216633;23;20008;-81
2022/06/30 10:17:46;;;;;;;13.02;7.00;;;;;;;;;;6216002;23;19986;-84
2022/06/30 10:20:11;;;;;;;11.95;7.47;;;;;;;;;;6215817;23;20076;-83
2022/06/30 10:22:39;;;;;;;10.88;7.45;;;;;;;;;;6189378;23;20384;-83
2022/06/30 10:25:05;;;;;;;10.20;7.35;;;;;;;;;;6215624;23;20005;-82
2022/06/30 10:27:31;;;;;;;13.73;7.05;;;;;;;;;;6215684;23;20055;-81
2022/06/30 10:30:09;;;;;;;12.60;7.38;;;;;;;;;;6215561;23;20008;-83
2022/06/30 10:32:59;;;;;;;11.50;7.50;;;;;;;;;;6189192;23;20058;-81
2022/06/30 10:35:33;;;;;;;16.35;8.65;;;;;;;;;;6215838;23;20083;-83
2022/06/30 10:38:20;;;;;;;12.32;7.18;;;;;;;;;;6215880;23;20001;-83
2022/06/30 10:41:00;;;;;;;10.68;7.03;;;;;;;;;;6216041;23;20019;-86
2022/06/30 10:43:25;;;;;;;12.35;7.43;;;;;;;;;;6216006;23;20076;-86
2022/06/30 10:45:56;;;;;;;10.60;7.35;;;;;;;;;;6216120;23;20035;-86
2022/06/30 10:48:22;;;;;;;16.40;8.95;;;;;;;;;;6216410;23;20005;-84
2022/06/30 10:50:49;;;;;;;13.45;7.82;;;;;;;;;;6218034;23;20081;-84
2022/06/30 10:53:37;;;;;;;10.50;7.32;;;;;;;;;;6217716;23;20005;-83
2022/06/30 10:56:04;;;;;;;11.57;7.63;;;;;;;;;;6217494;23;20078;-83
2022/06/30 10:58:29;;;;;;;10.40;6.93;;;;;;;;;;6217617;23;20063;-82
2022/06/30 11:00:55;;;;;;;15.93;7.38;;;;;;;;;;6217810;23;20419;-81
2022/06/30 11:03:29;;;;;;;16.70;7.57;;;;;;;;;;6217470;23;20032;-83
2022/06/30 11:05:56;;;;;;;11.15;6.93;;;;;;;;;;6217706;23;20004;-81
2022/06/30 11:08:36;;;;;;;16.42;7.93;;;;;;;;;;6217502;23;20012;-81
2022/06/30 11:11:28;;;;;;;15.00;7.93;;;;;;;;;;6217829;23;20034;-81
2022/06/30 11:14:03;;;;;;;12.00;6.35;;;;;;;;;;6171921;23;20005;-82
2022/06/30 11:16:35;;;;;;;11.80;6.72;;;;;;;;;;6217788;23;20317;-82
2022/06/30 11:19:04;;;;;;;12.73;6.82;;;;;;;;;;6217569;23;20323;-81
2022/06/30 11:21:30;;;;;;;14.70;7.22;;;;;;;;;;6217456;23;20008;-81
2022/06/30 11:24:00;;;;;;;13.15;7.22;;;;;;;;;;6217511;23;20435;-83
2022/06/30 11:29:12;;;;;;;17.08;8.27;;;;;;;;;;6217754;23;20055;-81
2022/06/30 11:31:41;;;;;;;11.57;7.60;;;;;;;;;;6217234;23;20011;-85
2022/06/30 11:34:19;;;;;;;13.70;7.60;;;;;;;;;;6217623;23;20008;-85
2022/06/30 11:36:45;;;;;;;12.53;7.23;;;;;;;;;;6217317;23;20001;-83
2022/06/30 11:39:14;;;;;;;19.95;8.75;;;;;;;;;;6217327;23;20015;-83
2022/06/30 11:44:38;;;;;;;15.48;8.32;;;;;;;;;;6217432;23;20035;-83
2022/06/30 17:12:18;;;;;;;8.52;5.93;;;;;;;;;;6215659;23;20008;-80
2022/06/30 17:14:44;;;;;;;12.95;6.10;;;;;;;;;;6189920;23;20372;-79
2022/06/30 17:17:09;;;;;;;10.38;5.75;;;;;;;;;;6216420;23;20051;-81
2022/06/30 17:19:35;;;;;;;10.15;5.82;;;;;;;;;;6216302;23;20012;-81
2022/06/30 17:22:00;;;;;;;8.93;5.30;;;;;;;;;;6216288;23;20324;-81
2022/06/30 17:24:26;;;;;;;9.85;6.13;;;;;;;;;;6216375;23;20008;-80
2022/06/30 17:26:52;;;;;;;11.68;5.63;;;;;;;;;;6216360;23;20075;-80
2022/06/30 17:29:18;;;;;;;10.02;5.80;;;;;;;;;;6215819;23;20005;-80
2022/06/30 17:31:44;;;;;;;10.30;5.28;;;;;;;;;;6216624;23;20031;-81
2022/06/30 17:34:10;;;;;;;9.95;4.85;;;;;;;;;;6189827;23;20327;-79
2022/06/30 17:36:36;;;;;;;10.65;5.07;;;;;;;;;;6216192;23;20005;-80
2022/06/30 17:39:02;;;;;;;7.97;5.20;;;;;;;;;;6215999;23;20088;-80
2022/06/30 17:41:28;;;;;;;11.07;5.03;;;;;;;;;;6216124;23;20004;-81
2022/06/30 17:43:54;;;;;;;8.73;5.03;;;;;;;;;;6216122;23;20005;-81
2022/06/30 17:46:19;;;;;;;11.05;5.05;;;;;;;;;;6216056;23;20068;-82
2022/06/30 17:48:44;;;;;;;9.52;4.60;;;;;;;;;;6216184;23;20008;-81
2022/06/30 17:51:10;;;;;;;8.32;5.38;;;;;;;;;;6216200;23;20011;-81
2022/06/30 17:53:36;;;;;;;10.73;4.50;;;;;;;;;;6216132;23;20008;-81
2022/06/30 17:56:03;;;;;;;14.20;5.13;;;;;;;;;;6216006;23;20000;-82
2022/06/30 17:58:28;;;;;;;10.25;5.68;;;;;;;;;;6216091;23;20326;-82
2022/06/30 18:00:54;;;;;;;9.52;5.13;;;;;;;;;;6216375;23;20001;-86
2022/06/30 18:03:19;;;;;;;8.13;4.55;;;;;;;;;;6216295;23;20001;-81
2022/06/30 18:05:49;;;;;;;7.07;4.88;;;;;;;;;;6216236;23;20092;-82
2022/06/30 18:11:17;;;;;;;16.27;5.80;;;;;;;;;;6215790;23;20024;-79
2022/06/30 18:13:48;;;;;;;11.05;4.97;;;;;;;;;;6216079;23;20012;-81
2022/06/30 18:16:15;;;;;;;7.80;4.80;;;;;;;;;;6216102;23;20035;-81
2022/06/30 18:18:48;;;;;;;7.70;4.78;;;;;;;;;;6216051;23;20012;-81
2022/06/30 18:21:15;;;;;;;7.53;5.47;;;;;;;;;;6215894;23;20403;-83
2022/06/30 18:23:41;;;;;;;8.68;4.50;;;;;;;;;;6216174;23;20005;-82
2022/06/30 18:26:08;;;;;;;8.05;4.93;;;;;;;;;;6216456;23;20446;-81
2022/06/30 18:28:34;;;;;;;9.05;5.28;;;;;;;;;;6215906;23;20008;-82
2022/06/30 18:31:03;;;;;;;12.18;5.20;;;;;;;;;;6216296;23;20013;-82
2022/06/30 18:33:30;;;;;;;6.90;4.65;;;;;;;;;;6215886;23;20095;-84
2022/06/30 18:35:55;;;;;;;9.65;4.90;;;;;;;;;;6215869;23;20005;-82
2022/06/30 18:38:21;;;;;;;9.13;5.63;;;;;;;;;;6215941;23;20005;-81
2022/06/30 18:40:47;;;;;;;9.10;5.57;;;;;;;;;;6216029;23;20005;-83
2022/06/30 18:43:13;;;;;;;8.88;4.35;;;;;;;;;;6216164;23;20008;-82
2022/06/30 18:45:40;;;;;;;7.03;4.78;;;;;;;;;;6189531;23;20492;-81
2022/06/30 18:48:06;;;;;;;7.72;4.47;;;;;;;;;;6215732;23;20000;-82
2022/06/30 18:50:32;;;;;;;11.70;6.75;;;;;;;;;;6215562;23;20012;-82
2022/06/30 18:52:57;;;;;;;7.90;4.45;;;;;;;;;;6216284;23;20009;-82
2022/06/30 18:55:22;;;;;;;10.63;4.68;;;;;;;;;;6216196;23;20319;-83
2022/06/30 18:57:50;;;;;;;10.35;4.97;;;;;;;;;;6215908;23;20361;-81
2022/06/30 19:00:16;;;;;;;9.27;4.80;;;;;;;;;;6215961;23;20000;-81
2022/06/30 19:02:42;;;;;;;7.70;4.38;;;;;;;;;;6215953;23;20000;-81
2022/06/30 19:05:08;;;;;;;8.00;5.93;;;;;;;;;;6215776;23;20001;-81
2022/06/30 19:07:34;;;;;;;9.60;5.72;;;;;;;;;;6215655;23;20067;-82
2022/06/30 19:10:02;;;;;;;10.40;4.93;;;;;;;;;;6216278;23;20007;-83
2022/06/30 19:12:27;;;;;;;8.40;4.80;;;;;;;;;;6217631;23;20432;-82
2022/06/30 19:14:53;;;;;;;9.55;4.50;;;;;;;;;;6217872;23;20092;-84
2022/06/30 19:17:18;;;;;;;6.28;4.28;;;;;;;;;;6217455;23;20320;-82
2022/06/30 19:19:44;;;;;;;9.20;4.00;;;;;;;;;;6217927;23;20078;-82
2022/06/30 19:22:09;;;;;;;7.90;4.50;;;;;;;;;;6217776;23;20097;-82
2022/06/30 19:24:35;;;;;;;7.43;4.25;;;;;;;;;;6218003;23;20363;-83
2022/06/30 19:27:00;;;;;;;8.55;4.25;;;;;;;;;;6217308;23;20379;-83
2022/06/30 19:29:26;;;;;;;8.23;4.60;;;;;;;;;;6217537;23;20323;-82
2022/06/30 19:31:53;;;;;;;7.53;4.25;;;;;;;;;;6217585;23;20055;-84
2022/06/30 19:34:19;;;;;;;8.45;4.78;;;;;;;;;;6217342;23;19997;-82
2022/06/30 19:36:45;;;;;;;10.02;4.53;;;;;;;;;;6190801;23;20052;-82
2022/06/30 19:39:11;;;;;;;7.80;4.72;;;;;;;;;;6217428;23;20380;-84
2022/06/30 19:41:36;;;;;;;6.63;4.30;;;;;;;;;;6217376;23;20004;-83
2022/06/30 19:44:02;;;;;;;9.00;4.22;;;;;;;;;;6217668;23;20028;-82
2022/06/30 19:46:28;;;;;;;9.80;4.45;;;;;;;;;;6217477;23;20487;-83
2022/06/30 19:48:53;;;;;;;7.95;4.47;;;;;;;;;;6217243;23;20004;-83
2022/06/30 19:51:19;;;;;;;5.55;3.90;;;;;;;;;;6217231;23;20008;-82
2022/06/30 19:53:44;;;;;;;9.35;4.38;;;;;;;;;;6216284;23;20426;-82
2022/06/30 19:56:11;;;;;;;8.38;3.83;;;;;;;;;;6217172;23;20328;-82
2022/06/30 19:58:37;;;;;;;6.50;4.03;;;;;;;;;;6190207;23;20004;-82
2022/06/30 20:01:12;;;;;;;6.05;4.20;;;;;;;;;;6216333;23;20004;-82
2022/06/30 20:06:25;;;;;;;7.05;4.05;;;;;;;;;;6217074;23;20103;-80
2022/06/30 20:11:34;;;;;;;8.90;3.88;;;;;;;;;;6216618;23;20071;-81
2022/06/30 20:14:02;;;;;;;7.95;4.18;;;;;;;;;;6216942;23;20016;-81
2022/06/30 20:16:30;;;;;;;8.77;4.63;;;;;;;;;;6216988;23;20007;-81
2022/06/30 20:18:57;;;;;;;8.65;3.65;;;;;;;;;;6216716;23;20000;-80
2022/06/30 20:21:24;;;;;;;7.57;3.88;;;;;;;;;;6216457;23;20004;-80
2022/06/30 20:23:50;;;;;;;8.80;3.92;;;;;;;;;;6190499;23;20001;-80
2022/06/30 20:26:16;;;;;;;6.97;4.10;;;;;;;;;;6216888;23;20005;-79
2022/06/30 20:28:43;;;;;;;7.00;4.05;;;;;;;;;;6216686;23;20004;-81
2022/06/30 20:31:13;;;;;;;8.30;4.88;;;;;;;;;;6216715;23;20080;-79
2022/06/30 20:33:39;;;;;;;10.57;4.65;;;;;;;;;;6190003;23;20087;-81
2022/06/30 20:36:06;;;;;;;6.10;3.83;;;;;;;;;;6216815;23;20008;-81
2022/06/30 20:38:32;;;;;;;7.80;4.28;;;;;;;;;;6216547;23;20008;-81
2022/06/30 20:41:01;;;;;;;6.20;4.38;;;;;;;;;;6216722;23;20012;-81
2022/06/30 20:43:26;;;;;;;13.15;4.60;;;;;;;;;;6216670;23;20011;-82
2022/06/30 20:45:52;;;;;;;8.02;4.20;;;;;;;;;;6216572;23;20028;-80
2022/06/30 20:53:45;;;;;;;9.13;4.45;;;;;;;;;;6216601;23;20019;-79
2022/06/30 20:56:10;;;;;;;9.60;4.45;;;;;;;;;;6216406;23;20079;-80
2022/06/30 20:58:36;;;;;;;9.73;4.07;;;;;;;;;;6216453;23;20008;-81
2022/06/30 21:01:02;;;;;;;8.13;4.72;;;;;;;;;;6216430;23;20344;-81
2022/06/30 21:03:27;;;;;;;9.50;4.07;;;;;;;;;;6216351;23;20004;-80
2022/06/30 21:05:53;;;;;;;7.25;3.67;;;;;;;;;;6216178;23;20008;-81
2022/06/30 21:08:20;;;;;;;7.85;4.20;;;;;;;;;;6216503;23;20068;-82
2022/06/30 21:10:46;;;;;;;9.30;3.88;;;;;;;;;;6216403;23;20501;-82
2022/06/30 21:13:14;;;;;;;8.43;4.63;;;;;;;;;;6216620;23;20087;-81
2022/06/30 21:15:40;;;;;;;9.98;4.47;;;;;;;;;;6216489;23;20000;-80
2022/06/30 21:18:05;;;;;;;6.25;4.10;;;;;;;;;;6216471;23;20032;-79
2022/06/30 21:20:31;;;;;;;4.95;3.53;;;;;;;;;;6216375;23;20001;-81
2022/06/30 21:22:56;;;;;;;9.60;3.95;;;;;;;;;;6216537;23;20434;-81
2022/06/30 21:25:22;;;;;;;5.97;3.60;;;;;;;;;;6189682;23;20015;-81
2022/06/30 21:27:47;;;;;;;9.00;4.28;;;;;;;;;;6216559;23;20012;-82
2022/06/30 21:30:12;;;;;;;7.60;3.97;;;;;;;;;;6216457;23;20420;-80
2022/06/30 21:32:38;;;;;;;7.05;4.75;;;;;;;;;;6216366;23;20004;-81
2022/06/30 21:35:04;;;;;;;6.45;4.55;;;;;;;;;;6216389;23;20320;-81
2022/06/30 21:37:29;;;;;;;8.73;4.63;;;;;;;;;;6216325;23;20000;-82
2022/06/30 21:39:55;;;;;;;6.90;4.38;;;;;;;;;;6216862;23;20032;-82
2022/06/30 21:42:21;;;;;;;5.53;4.20;;;;;;;;;;6216434;23;20008;-82
2022/06/30 21:44:48;;;;;;;5.15;3.70;;;;;;;;;;6216421;23;20001;-82
2022/06/30 21:47:17;;;;;;;8.68;4.47;;;;;;;;;;6216358;23;20011;-81
2022/06/30 21:49:44;;;;;;;6.32;4.22;;;;;;;;;;6216033;23;20001;-82
2022/06/30 21:52:10;;;;;;;8.88;5.05;;;;;;;;;;6216522;23;20030;-80
2022/06/30 21:54:35;;;;;;;9.10;4.43;;;;;;;;;;6216343;23;20440;-80
2022/06/30 21:57:01;;;;;;;10.25;4.63;;;;;;;;;;6216498;23;20008;-81
2022/06/30 21:59:26;;;;;;;6.25;3.97;;;;;;;;;;6216365;23;20001;-79
2022/06/30 22:01:52;;;;;;;8.95;4.82;;;;;;;;;;6216306;23;20036;-81
2022/06/30 22:04:17;;;;;;;6.90;4.40;;;;;;;;;;6216381;23;20372;-79
2022/06/30 22:06:43;;;;;;;8.73;4.22;;;;;;;;;;6216947;23;20305;-80
2022/06/30 22:09:09;;;;;;;8.70;4.55;;;;;;;;;;6216000;23;20005;-80
2022/06/30 22:11:35;;;;;;;7.30;4.00;;;;;;;;;;6217366;23;20071;-80
2022/06/30 22:14:01;;;;;;;9.00;4.57;;;;;;;;;;6217045;23;20432;-80
2022/06/30 22:16:26;;;;;;;9.55;5.57;;;;;;;;;;6217638;23;20001;-81
2022/06/30 22:18:51;;;;;;;10.32;4.40;;;;;;;;;;6217212;23;20001;-81
